createdAt,value
2023-03-31T00:02:13.817Z,37.17
2023-03-31T00:04:45.734Z,36.84
2023-03-31T00:07:16.612Z,36.88
2023-03-31T00:09:48.037Z,37.02
2023-03-31T00:12:16.414Z,36.88
2023-03-31T00:14:43.658Z,37.04
2023-03-31T00:17:11.758Z,37.21
2023-03-31T00:19:39.954Z,37.14
2023-03-31T00:22:08.219Z,36.93
2023-03-31T00:24:35.887Z,36.80
2023-03-31T00:27:04.030Z,36.82
2023-03-31T00:29:33.348Z,36.96
2023-03-31T00:32:00.724Z,36.98
2023-03-31T00:34:28.324Z,36.92
2023-03-31T00:36:57.904Z,37.29
2023-03-31T00:39:25.432Z,37.65
2023-03-31T00:41:52.566Z,37.71
2023-03-31T00:44:22.514Z,37.66
2023-03-31T00:46:53.138Z,37.96
2023-03-31T00:49:32.860Z,37.87
2023-03-31T00:52:10.664Z,37.76
2023-03-31T00:54:38.339Z,36.97
2023-03-31T00:57:06.534Z,36.46
2023-03-31T00:59:37.796Z,35.74
2023-03-31T01:02:05.114Z,35.57
2023-03-31T01:04:35.364Z,34.64
2023-03-31T01:07:16.665Z,33.52
2023-03-31T01:09:47.072Z,33.29
2023-03-31T01:12:16.008Z,32.66
2023-03-31T01:14:44.053Z,32.78
2023-03-31T01:17:19.040Z,31.96
2023-03-31T01:20:12.242Z,32.12
2023-03-31T01:23:10.386Z,31.21
2023-03-31T01:25:58.694Z,31.02
2023-03-31T01:28:32.007Z,29.96
2023-03-31T01:30:59.420Z,28.49
2023-03-31T01:33:57.288Z,27.62
2023-03-31T01:36:46.322Z,27.30
2023-03-31T01:39:46.718Z,26.54
2023-03-31T01:42:18.402Z,26.25
2023-03-31T01:45:12.110Z,25.34
2023-03-31T01:47:47.120Z,24.90
2023-03-31T01:50:20.515Z,22.45
2023-03-31T01:53:03.684Z,20.95
2023-03-31T01:55:39.127Z,19.44
2023-03-31T01:58:16.669Z,18.33
2023-03-31T02:01:06.245Z,16.70
2023-03-31T02:03:36.381Z,16.06
2023-03-31T02:06:09.515Z,16.28
2023-03-31T02:08:40.177Z,15.77
2023-03-31T02:11:07.606Z,16.03
2023-03-31T02:13:35.199Z,15.58
2023-03-31T02:16:07.188Z,14.68
2023-03-31T02:18:38.012Z,14.33
2023-03-31T02:21:05.839Z,14.25
2023-03-31T02:23:32.953Z,14.24
2023-03-31T02:26:07.133Z,14.72
2023-03-31T02:28:34.479Z,14.73
2023-03-31T02:31:17.185Z,13.81
2023-03-31T02:33:44.289Z,14.10
2023-03-31T02:36:11.506Z,14.06
2023-03-31T02:38:53.951Z,14.50
2023-03-31T02:41:21.671Z,14.85
2023-03-31T02:43:50.160Z,14.73
2023-03-31T02:46:17.682Z,15.13
2023-03-31T02:48:48.038Z,14.91
2023-03-31T02:51:34.219Z,14.63
2023-03-31T02:54:11.192Z,14.76
2023-03-31T02:57:13.020Z,14.57
2023-03-31T02:59:43.578Z,14.64
2023-03-31T03:02:29.973Z,14.94
2023-03-31T03:05:34.931Z,15.17
2023-03-31T03:08:58.328Z,15.28
2023-03-31T03:11:32.861Z,15.55
2023-03-31T03:14:20.393Z,15.66
2023-03-31T03:16:50.155Z,15.49
2023-03-31T03:19:21.246Z,16.09
2023-03-31T03:21:48.556Z,16.70
2023-03-31T03:24:16.731Z,17.09
2023-03-31T03:26:44.903Z,16.47
2023-03-31T03:29:15.396Z,16.11
2023-03-31T03:31:43.318Z,17.11
2023-03-31T03:34:10.630Z,17.90
2023-03-31T03:36:38.234Z,18.34
2023-03-31T03:39:07.263Z,19.14
2023-03-31T03:41:34.432Z,19.44
2023-03-31T03:44:01.811Z,19.51
2023-03-31T03:46:29.413Z,19.86
2023-03-31T03:48:56.613Z,20.15
2023-03-31T03:51:23.935Z,20.25
2023-03-31T03:53:51.236Z,20.25
2023-03-31T03:56:18.691Z,19.99
2023-03-31T03:58:46.261Z,19.93
2023-03-31T04:01:14.584Z,20.04
2023-03-31T04:03:41.927Z,19.93
2023-03-31T04:06:09.308Z,18.98
2023-03-31T04:08:39.987Z,18.88
2023-03-31T04:11:17.353Z,18.35
2023-03-31T04:13:46.262Z,19.25
2023-03-31T04:16:13.872Z,20.73
2023-03-31T04:18:43.867Z,21.51
2023-03-31T04:21:14.975Z,21.66
2023-03-31T04:23:49.239Z,21.46
2023-03-31T04:26:18.239Z,20.88
2023-03-31T04:28:50.339Z,21.28
2023-03-31T04:31:25.012Z,20.67
2023-03-31T04:33:53.550Z,20.47
2023-03-31T04:36:21.448Z,20.92
2023-03-31T04:38:55.048Z,21.51
2023-03-31T04:41:22.894Z,20.57
2023-03-31T04:43:50.543Z,19.86
2023-03-31T04:46:18.032Z,19.30
2023-03-31T04:48:45.518Z,19.39
2023-03-31T04:51:15.162Z,19.21
2023-03-31T04:53:42.285Z,19.45
2023-03-31T04:56:10.077Z,20.50
2023-03-31T04:58:37.636Z,20.97
2023-03-31T05:01:08.136Z,24.62
2023-03-31T05:03:36.081Z,27.48
2023-03-31T05:06:03.345Z,29.22
2023-03-31T05:08:30.449Z,31.52
2023-03-31T05:10:58.139Z,34.87
2023-03-31T05:13:25.308Z,36.48
2023-03-31T05:15:52.450Z,37.45
2023-03-31T05:18:20.038Z,37.29
2023-03-31T05:20:47.147Z,37.00
2023-03-31T05:23:14.573Z,37.03
2023-03-31T05:25:42.345Z,38.24
2023-03-31T05:28:09.976Z,38.28
2023-03-31T05:30:37.570Z,38.75
2023-03-31T05:33:05.043Z,38.08
2023-03-31T05:35:32.612Z,38.03
2023-03-31T05:38:00.266Z,39.88
2023-03-31T05:40:27.489Z,39.62
2023-03-31T05:42:54.843Z,39.28
2023-03-31T05:45:22.354Z,38.85
2023-03-31T05:47:49.789Z,38.62
2023-03-31T05:50:17.233Z,37.52
2023-03-31T05:52:44.353Z,36.63
2023-03-31T05:55:12.998Z,35.88
2023-03-31T05:57:40.307Z,35.04
2023-03-31T06:00:10.727Z,33.42
2023-03-31T06:02:38.028Z,32.65
2023-03-31T06:05:06.053Z,31.86
2023-03-31T06:07:33.717Z,30.36
2023-03-31T06:10:00.865Z,29.38
2023-03-31T06:12:28.113Z,28.76
2023-03-31T06:14:55.577Z,28.12
2023-03-31T06:17:22.793Z,27.50
2023-03-31T06:19:50.244Z,27.70
2023-03-31T06:22:17.245Z,26.73
2023-03-31T06:24:44.354Z,26.77
2023-03-31T06:27:11.435Z,27.11
2023-03-31T06:29:38.862Z,28.68
2023-03-31T06:32:06.773Z,29.79
2023-03-31T06:34:34.240Z,28.73
2023-03-31T06:37:01.604Z,28.23
2023-03-31T06:39:29.264Z,27.78
2023-03-31T06:41:56.786Z,27.24
2023-03-31T06:44:28.196Z,26.46
2023-03-31T06:46:55.443Z,26.08
2023-03-31T06:49:22.589Z,26.27
2023-03-31T06:51:50.712Z,25.49
2023-03-31T06:54:18.144Z,24.96
2023-03-31T06:56:45.651Z,24.71
2023-03-31T06:59:13.143Z,24.45
2023-03-31T07:01:42.719Z,23.89
2023-03-31T07:04:09.908Z,23.86
2023-03-31T07:06:37.344Z,27.00
2023-03-31T07:09:04.512Z,29.11
2023-03-31T07:11:31.853Z,30.26
2023-03-31T07:13:59.195Z,31.00
2023-03-31T07:16:26.634Z,32.52
2023-03-31T07:18:59.165Z,33.66
2023-03-31T07:21:26.923Z,35.84
2023-03-31T07:23:54.582Z,36.65
2023-03-31T07:26:21.986Z,39.13
2023-03-31T07:28:49.101Z,40.58
2023-03-31T07:31:16.590Z,39.77
2023-03-31T07:33:44.156Z,40.12
2023-03-31T07:36:13.858Z,40.37
2023-03-31T07:38:42.602Z,40.33
2023-03-31T07:41:13.752Z,40.76
2023-03-31T07:43:41.137Z,42.99
2023-03-31T07:46:14.747Z,43.46
2023-03-31T07:48:43.620Z,43.98
2023-03-31T07:51:10.654Z,43.81
2023-03-31T07:53:37.819Z,46.21
2023-03-31T07:56:05.602Z,44.47
2023-03-31T07:58:33.483Z,43.16
2023-03-31T08:01:00.911Z,42.03
2023-03-31T08:03:28.868Z,42.71
2023-03-31T08:05:56.386Z,41.31
2023-03-31T08:08:24.120Z,40.41
2023-03-31T08:10:51.391Z,39.63
2023-03-31T08:13:18.725Z,38.05
2023-03-31T08:15:46.435Z,37.98
2023-03-31T08:18:13.585Z,37.19
2023-03-31T08:20:40.829Z,36.91
2023-03-31T08:23:11.075Z,37.03
2023-03-31T08:25:38.777Z,35.58
2023-03-31T08:28:06.653Z,34.44
2023-03-31T08:30:34.155Z,33.26
2023-03-31T08:33:01.714Z,33.50
2023-03-31T08:35:28.897Z,32.70
2023-03-31T08:37:56.222Z,32.06
2023-03-31T08:40:24.595Z,31.92
2023-03-31T08:43:05.192Z,31.21
2023-03-31T08:45:50.760Z,31.89
2023-03-31T08:48:34.789Z,29.94
2023-03-31T08:51:08.474Z,30.52
2023-03-31T08:53:39.314Z,31.21
2023-03-31T08:56:08.564Z,31.20
2023-03-31T08:58:40.304Z,31.04
2023-03-31T09:01:47.738Z,30.85
2023-03-31T09:04:27.138Z,32.96
2023-03-31T09:07:11.903Z,35.47
2023-03-31T09:10:13.268Z,37.56
2023-03-31T09:12:46.826Z,39.50
2023-03-31T09:15:46.271Z,38.52
2023-03-31T09:18:35.959Z,38.94
2023-03-31T09:21:26.541Z,38.83
2023-03-31T09:24:01.721Z,37.83
2023-03-31T09:26:45.590Z,37.33
2023-03-31T09:29:18.394Z,37.24
2023-03-31T09:31:46.576Z,37.37
2023-03-31T09:34:16.620Z,36.16
2023-03-31T09:36:44.129Z,36.73
2023-03-31T09:39:15.089Z,36.57
2023-03-31T09:41:45.599Z,36.74
2023-03-31T09:44:25.049Z,36.94
2023-03-31T09:46:53.292Z,39.38
2023-03-31T09:49:26.524Z,41.26
2023-03-31T09:52:09.597Z,43.15
2023-03-31T09:54:56.425Z,43.38
2023-03-31T09:57:31.257Z,45.20
2023-03-31T10:00:16.054Z,45.38
2023-03-31T10:02:50.300Z,44.49
2023-03-31T10:05:36.563Z,42.86
2023-03-31T10:08:27.732Z,43.30
2023-03-31T10:11:04.194Z,43.07
2023-03-31T10:13:59.685Z,44.14
2023-03-31T10:16:29.851Z,44.42
2023-03-31T10:19:19.029Z,44.45
2023-03-31T10:21:47.097Z,44.15
2023-03-31T10:24:18.532Z,44.00
2023-03-31T10:26:49.977Z,43.14
2023-03-31T10:29:22.195Z,43.36
2023-03-31T10:31:49.746Z,43.53
2023-03-31T10:34:17.304Z,42.85
2023-03-31T10:36:47.251Z,42.75
2023-03-31T10:39:16.900Z,43.50
2023-03-31T10:41:43.970Z,41.05
2023-03-31T10:44:35.196Z,39.92
2023-03-31T10:47:14.558Z,40.04
2023-03-31T10:49:43.181Z,40.16
2023-03-31T10:52:27.368Z,40.78
2023-03-31T10:54:59.019Z,40.90
2023-03-31T10:57:38.533Z,40.30
2023-03-31T11:00:30.869Z,40.41
2023-03-31T11:03:10.079Z,40.72
2023-03-31T11:05:47.343Z,40.75
2023-03-31T11:08:26.960Z,40.49
2023-03-31T11:11:39.323Z,40.96
2023-03-31T11:14:47.758Z,41.35
2023-03-31T11:17:49.222Z,40.94
2023-03-31T11:20:35.544Z,40.29
2023-03-31T11:23:15.354Z,39.61
2023-03-31T11:26:14.888Z,38.48
2023-03-31T11:29:01.359Z,38.23
2023-03-31T11:31:38.668Z,37.80
2023-03-31T11:34:40.060Z,38.05
2023-03-31T11:37:31.556Z,38.23
2023-03-31T11:40:29.287Z,37.87
2023-03-31T11:43:01.493Z,38.53
2023-03-31T11:45:40.239Z,38.16
2023-03-31T11:48:14.267Z,37.80
2023-03-31T11:50:41.602Z,37.65
2023-03-31T11:53:19.007Z,39.30
2023-03-31T11:55:47.561Z,40.48
2023-03-31T11:58:19.324Z,40.23
2023-03-31T12:01:01.177Z,40.86
2023-03-31T12:04:01.001Z,43.05
2023-03-31T12:06:34.169Z,44.02
2023-03-31T12:09:23.288Z,44.72
2023-03-31T12:11:57.676Z,45.72
2023-03-31T12:14:38.888Z,44.06
2023-03-31T12:17:14.233Z,42.95
2023-03-31T12:19:59.718Z,43.06
2023-03-31T12:22:26.876Z,43.30
2023-03-31T12:24:54.060Z,43.87
2023-03-31T12:27:24.293Z,44.69
2023-03-31T12:30:00.869Z,44.54
2023-03-31T12:32:36.785Z,44.90
2023-03-31T12:35:24.747Z,45.30
2023-03-31T12:38:42.817Z,46.26
2023-03-31T12:41:18.767Z,46.12
2023-03-31T12:44:10.938Z,45.85
2023-03-31T12:46:59.737Z,45.45
2023-03-31T12:49:42.082Z,45.70
2023-03-31T12:52:18.799Z,45.32
2023-03-31T12:55:10.761Z,44.58
2023-03-31T12:57:37.856Z,45.12
2023-03-31T13:00:12.348Z,45.31
2023-03-31T13:02:40.476Z,45.75
2023-03-31T13:05:47.280Z,46.27
2023-03-31T13:08:50.310Z,45.98
2023-03-31T13:11:22.606Z,45.84
2023-03-31T13:14:02.294Z,45.71
2023-03-31T13:16:30.416Z,45.84
2023-03-31T13:18:57.536Z,46.06
2023-03-31T13:21:25.569Z,46.47
2023-03-31T13:23:53.371Z,46.13
2023-03-31T13:26:36.745Z,46.49
2023-03-31T13:29:13.917Z,46.81
2023-03-31T13:32:02.941Z,47.87
2023-03-31T13:35:00.285Z,48.10
2023-03-31T13:38:04.287Z,49.01
2023-03-31T13:40:50.331Z,49.37
2023-03-31T13:43:36.040Z,49.45
2023-03-31T13:46:26.557Z,49.70
2023-03-31T13:49:01.105Z,49.71
2023-03-31T13:51:53.203Z,50.20
2023-03-31T13:55:13.557Z,50.21
2023-03-31T13:57:52.872Z,51.37
2023-03-31T14:00:41.954Z,51.13
2023-03-31T14:03:17.008Z,51.17
2023-03-31T14:05:53.791Z,51.20
2023-03-31T14:08:47.339Z,51.39
2023-03-31T14:11:24.728Z,51.71
2023-03-31T14:14:01.063Z,51.72
2023-03-31T14:16:28.471Z,52.37
2023-03-31T14:19:14.991Z,52.85
2023-03-31T14:22:06.294Z,53.88
2023-03-31T14:24:42.751Z,53.81
2023-03-31T14:27:40.865Z,54.83
2023-03-31T14:30:13.784Z,55.89
2023-03-31T14:32:48.208Z,56.61
2023-03-31T14:35:28.967Z,55.42
2023-03-31T14:37:56.343Z,51.95
2023-03-31T14:40:23.946Z,51.11
2023-03-31T14:42:51.494Z,50.30
2023-03-31T14:45:21.826Z,48.87
2023-03-31T14:48:00.016Z,48.67
2023-03-31T14:50:33.958Z,48.39
2023-03-31T14:53:02.368Z,48.35
2023-03-31T14:55:44.239Z,48.57
2023-03-31T14:58:37.447Z,49.00
2023-03-31T15:01:06.532Z,49.23
2023-03-31T15:03:35.040Z,49.16
2023-03-31T15:06:02.841Z,49.83
2023-03-31T15:08:30.667Z,50.00
2023-03-31T15:11:11.810Z,49.71
2023-03-31T15:14:00.538Z,49.29
2023-03-31T15:16:29.749Z,48.94
2023-03-31T15:18:57.764Z,48.54
2023-03-31T15:21:26.934Z,48.00
2023-03-31T15:23:57.522Z,47.49
2023-03-31T15:26:38.462Z,47.77
2023-03-31T15:29:17.320Z,47.07
2023-03-31T15:31:45.071Z,47.12
2023-03-31T15:34:15.772Z,46.60
2023-03-31T15:36:43.439Z,46.70
2023-03-31T15:39:11.093Z,46.57
2023-03-31T15:41:38.210Z,45.83
2023-03-31T15:44:33.957Z,46.36
2023-03-31T15:47:22.030Z,46.70
2023-03-31T15:50:04.580Z,47.75
2023-03-31T15:52:35.917Z,48.41
2023-03-31T15:55:23.547Z,48.52
2023-03-31T15:57:52.990Z,48.93
2023-03-31T16:00:45.308Z,49.58
2023-03-31T16:03:38.323Z,51.16
2023-03-31T16:06:06.043Z,51.68
2023-03-31T16:08:44.814Z,51.66
2023-03-31T16:11:27.926Z,50.88
2023-03-31T16:13:57.136Z,50.78
2023-03-31T16:16:25.180Z,50.56
2023-03-31T16:18:55.387Z,50.77
2023-03-31T16:21:28.930Z,50.21
2023-03-31T16:23:57.409Z,50.46
2023-03-31T16:26:25.957Z,49.67
2023-03-31T16:28:53.768Z,49.93
2023-03-31T16:31:35.660Z,50.46
2023-03-31T16:34:05.131Z,50.26
2023-03-31T16:36:32.572Z,50.12
2023-03-31T16:39:02.211Z,50.30
2023-03-31T16:41:29.813Z,50.21
2023-03-31T16:43:57.200Z,49.91
2023-03-31T16:46:25.212Z,50.51
2023-03-31T16:48:52.800Z,49.40
2023-03-31T16:51:20.508Z,48.47
2023-03-31T16:53:47.886Z,49.41
2023-03-31T16:56:15.410Z,49.17
2023-03-31T16:58:43.408Z,49.54
2023-03-31T17:01:11.240Z,49.41
2023-03-31T17:03:40.923Z,49.54
2023-03-31T17:06:11.088Z,49.36
2023-03-31T17:08:39.351Z,49.44
2023-03-31T17:11:11.750Z,49.92
2023-03-31T17:13:39.568Z,50.21
2023-03-31T17:18:55.548Z,49.52
2023-03-31T17:21:23.799Z,49.82
2023-03-31T17:23:50.867Z,49.13
2023-03-31T17:26:18.254Z,48.83
2023-03-31T17:28:45.862Z,48.77
2023-03-31T17:31:16.921Z,48.76
2023-03-31T17:33:44.525Z,49.09
2023-03-31T17:36:11.679Z,48.50
2023-03-31T17:38:39.908Z,48.89
2023-03-31T17:41:08.367Z,48.55
2023-03-31T17:43:35.565Z,48.74
2023-03-31T17:46:04.919Z,48.78
2023-03-31T17:48:34.095Z,48.30
2023-03-31T17:51:05.614Z,48.55
2023-03-31T17:53:33.483Z,48.10
2023-03-31T17:56:01.744Z,48.50
2023-03-31T17:58:28.869Z,47.73
2023-03-31T18:00:56.940Z,48.23
2023-03-31T18:03:24.549Z,48.00
2023-03-31T18:05:52.029Z,48.23
2023-03-31T18:08:19.084Z,48.35
2023-03-31T18:10:46.912Z,47.87
2023-03-31T18:13:14.350Z,48.44
2023-03-31T18:15:48.389Z,48.50
2023-03-31T18:18:15.805Z,49.02
2023-03-31T18:20:42.914Z,49.12
2023-03-31T18:23:10.222Z,49.68
2023-03-31T18:25:38.276Z,49.71
2023-03-31T18:28:05.975Z,50.60
2023-03-31T18:30:33.622Z,50.28
2023-03-31T18:33:01.453Z,50.45
2023-03-31T18:35:29.134Z,50.44
2023-03-31T18:37:56.810Z,50.32
2023-03-31T18:40:24.234Z,50.29
2023-03-31T18:42:51.742Z,50.87
2023-03-31T18:45:19.184Z,50.34
2023-03-31T18:47:46.757Z,50.62
2023-03-31T18:50:14.279Z,50.52
2023-03-31T18:52:41.472Z,50.99
2023-03-31T18:55:09.318Z,50.77
2023-03-31T18:57:36.428Z,50.94
2023-03-31T19:00:05.485Z,50.45
2023-03-31T19:02:33.207Z,50.73
2023-03-31T19:05:00.754Z,50.75
2023-03-31T19:07:28.442Z,50.62
2023-03-31T19:09:55.758Z,50.19
2023-03-31T19:12:23.570Z,50.13
2023-03-31T19:14:50.620Z,50.09
2023-03-31T19:17:19.755Z,49.84
2023-03-31T19:19:47.414Z,50.04
2023-03-31T19:22:15.429Z,50.19
2023-03-31T19:24:43.590Z,50.09
2023-03-31T19:27:12.341Z,49.99
2023-03-31T19:29:39.827Z,50.15
2023-03-31T19:32:07.771Z,49.69
2023-03-31T19:34:35.002Z,49.70
2023-03-31T19:37:03.581Z,49.54
2023-03-31T19:39:31.574Z,49.08
2023-03-31T19:41:58.742Z,48.62
2023-03-31T19:44:26.514Z,48.38
2023-03-31T19:46:54.134Z,48.32
2023-03-31T19:49:21.425Z,47.55
2023-03-31T19:51:48.597Z,47.33
2023-03-31T19:54:16.242Z,46.87
2023-03-31T19:56:44.496Z,46.75
2023-03-31T19:59:11.948Z,46.99
2023-03-31T20:01:39.485Z,46.88
2023-03-31T20:04:07.260Z,47.20
2023-03-31T20:06:35.562Z,47.56
2023-03-31T20:09:03.397Z,47.51
2023-03-31T20:11:31.907Z,48.00
2023-03-31T20:13:59.492Z,48.48
2023-03-31T20:16:27.941Z,47.92
2023-03-31T20:19:03.846Z,47.90
2023-03-31T20:21:33.372Z,47.90
2023-03-31T20:24:01.371Z,47.84
2023-03-31T20:26:30.102Z,48.00
2023-03-31T20:28:58.398Z,48.23
2023-03-31T20:31:27.693Z,48.13
2023-03-31T20:33:55.635Z,48.47
2023-03-31T20:36:28.914Z,48.11
2023-03-31T20:38:56.889Z,48.01
2023-03-31T20:41:28.887Z,48.36
2023-03-31T20:43:56.535Z,48.48
2023-03-31T20:46:24.780Z,47.78
2023-03-31T20:48:57.142Z,48.17
2023-03-31T20:51:31.158Z,48.59
2023-03-31T20:53:59.063Z,48.19
2023-03-31T20:56:31.472Z,47.89
2023-03-31T20:58:58.842Z,47.92
2023-03-31T21:01:27.531Z,48.11
2023-03-31T21:03:58.717Z,48.15
2023-03-31T21:06:27.017Z,48.62
2023-03-31T21:08:54.664Z,49.02
2023-03-31T21:11:24.830Z,48.86
2023-03-31T21:13:52.962Z,50.01
2023-03-31T21:16:20.600Z,49.69
2023-03-31T21:18:48.310Z,49.80
2023-03-31T21:21:18.788Z,50.20
2023-03-31T21:23:46.748Z,50.21
2023-03-31T21:26:15.834Z,51.12
2023-03-31T21:28:43.343Z,50.89
2023-03-31T21:31:15.569Z,50.87
2023-03-31T21:33:43.031Z,50.46
2023-03-31T21:36:18.692Z,50.53
2023-03-31T21:38:46.422Z,49.89
2023-03-31T21:41:18.637Z,50.21
2023-03-31T21:43:45.762Z,49.34
2023-03-31T21:46:16.940Z,49.21
2023-03-31T21:48:44.335Z,49.75
2023-03-31T21:51:11.720Z,49.83
2023-03-31T21:53:38.836Z,49.59
2023-03-31T21:56:06.169Z,49.62
2023-03-31T21:58:34.037Z,49.40
2023-03-31T22:01:03.627Z,48.89
2023-03-31T22:03:33.896Z,49.40
2023-03-31T22:06:06.626Z,49.15
2023-03-31T22:08:33.896Z,48.25
2023-03-31T22:11:01.216Z,48.52
2023-03-31T22:13:28.627Z,48.23
2023-03-31T22:15:56.378Z,48.25
2023-03-31T22:18:23.743Z,48.38
2023-03-31T22:20:50.964Z,48.63
2023-03-31T22:23:20.252Z,48.36
2023-03-31T22:25:47.570Z,48.97
2023-03-31T22:28:15.869Z,48.04
2023-03-31T22:30:43.722Z,48.23
2023-03-31T22:33:11.121Z,48.31
2023-03-31T22:35:38.359Z,48.08
2023-03-31T22:38:06.602Z,47.74
2023-03-31T22:40:34.970Z,47.79
2023-03-31T22:43:02.410Z,47.52
2023-03-31T22:45:29.596Z,48.23
2023-03-31T22:47:57.119Z,47.41
2023-03-31T22:50:24.542Z,47.20
2023-03-31T22:52:52.102Z,47.02
2023-03-31T22:55:19.608Z,47.07
2023-03-31T22:57:46.982Z,47.25
2023-03-31T23:00:14.634Z,47.13
2023-03-31T23:02:41.906Z,47.39
2023-03-31T23:05:09.730Z,48.06
2023-03-31T23:07:37.970Z,47.10
2023-03-31T23:10:05.825Z,47.28
2023-03-31T23:12:33.597Z,47.73
2023-03-31T23:15:01.410Z,48.15
2023-03-31T23:17:29.020Z,47.79
2023-03-31T23:19:56.802Z,48.46
2023-03-31T23:22:25.504Z,48.30
2023-03-31T23:24:53.050Z,48.98
2023-03-31T23:27:20.901Z,48.91
2023-03-31T23:29:47.805Z,48.61
2023-03-31T23:32:15.599Z,49.45
2023-03-31T23:34:43.296Z,49.04
2023-03-31T23:37:11.821Z,49.26
2023-03-31T23:39:39.015Z,49.46
2023-03-31T23:42:07.288Z,48.74
2023-03-31T23:44:37.492Z,49.52
2023-03-31T23:47:05.646Z,49.49
2023-03-31T23:49:33.709Z,49.78
2023-03-31T23:52:01.114Z,49.10
2023-03-31T23:54:28.640Z,47.79
2023-03-31T23:56:56.049Z,47.24
2023-03-31T23:59:23.769Z,45.79
